createdAt,value
2023-04-10T00:00:49.067Z,4.53
2023-04-10T00:03:18.300Z,4.30
2023-04-10T00:05:47.651Z,4.21
2023-04-10T00:08:17.597Z,4.22
2023-04-10T00:10:46.516Z,4.12
2023-04-10T00:13:16.032Z,4.19
2023-04-10T00:15:44.972Z,4.10
2023-04-10T00:18:15.620Z,4.08
2023-04-10T00:20:44.773Z,4.28
2023-04-10T00:23:13.693Z,4.42
2023-04-10T00:25:42.611Z,4.33
2023-04-10T00:28:11.590Z,4.13
2023-04-10T00:30:40.759Z,4.35
2023-04-10T00:33:09.540Z,4.16
2023-04-10T00:35:40.130Z,3.93
2023-04-10T00:38:08.968Z,4.03
2023-04-10T00:40:37.738Z,3.88
2023-04-10T00:43:06.816Z,3.78
2023-04-10T00:45:35.734Z,3.90
2023-04-10T00:48:05.806Z,4.09
2023-04-10T00:50:34.684Z,4.02
2023-04-10T00:53:05.094Z,3.73
2023-04-10T00:55:34.373Z,3.72
2023-04-10T00:58:03.602Z,3.60
2023-04-10T01:00:32.297Z,3.50
2023-04-10T01:03:01.778Z,3.52
2023-04-10T01:05:40.601Z,3.45
2023-04-10T01:08:24.451Z,3.74
2023-04-10T01:11:11.420Z,3.57
2023-04-10T01:13:49.726Z,3.47
2023-04-10T01:16:28.031Z,3.69
2023-04-10T01:19:08.352Z,3.90
2023-04-10T01:21:42.750Z,4.06
2023-04-10T01:24:47.975Z,4.11
2023-04-10T01:27:37.195Z,4.12
2023-04-10T01:30:13.337Z,3.82
2023-04-10T01:32:45.070Z,3.59
2023-04-10T01:35:17.409Z,3.51
2023-04-10T01:37:51.916Z,3.66
2023-04-10T01:40:23.019Z,3.64
2023-04-10T01:42:56.925Z,3.44
2023-04-10T01:45:34.972Z,3.67
2023-04-10T01:48:05.791Z,3.89
2023-04-10T01:50:37.100Z,3.91
2023-04-10T01:53:08.927Z,3.67
2023-04-10T01:55:40.233Z,3.83
2023-04-10T01:58:12.359Z,3.93
2023-04-10T02:00:46.516Z,3.95
2023-04-10T02:03:16.893Z,3.96
2023-04-10T02:06:02.492Z,3.64
2023-04-10T02:08:41.274Z,3.38
2023-04-10T02:11:17.191Z,3.37
2023-04-10T02:13:48.071Z,3.58
2023-04-10T02:16:23.240Z,3.69
2023-04-10T02:18:54.059Z,3.76
2023-04-10T02:21:23.117Z,3.86
2023-04-10T02:23:52.564Z,3.93
2023-04-10T02:26:22.553Z,3.94
2023-04-10T02:28:51.313Z,3.84
2023-04-10T02:31:21.671Z,3.89
2023-04-10T02:33:50.409Z,3.82
2023-04-10T02:36:19.097Z,3.61
2023-04-10T02:38:47.938Z,3.51
2023-04-10T02:41:17.122Z,3.55
2023-04-10T02:43:46.177Z,3.61
2023-04-10T02:46:15.363Z,3.69
2023-04-10T02:48:45.612Z,3.68
2023-04-10T02:51:14.416Z,3.63
2023-04-10T02:53:43.152Z,3.45
2023-04-10T02:56:14.191Z,3.27
2023-04-10T02:58:46.246Z,3.20
2023-04-10T03:01:16.273Z,3.13
2023-04-10T03:03:48.780Z,3.21
2023-04-10T03:06:27.442Z,3.16
2023-04-10T03:08:59.909Z,3.14
2023-04-10T03:11:30.674Z,3.16
2023-04-10T03:14:00.445Z,3.23
2023-04-10T03:16:29.252Z,3.31
2023-04-10T03:18:59.781Z,3.39
2023-04-10T03:21:28.782Z,3.49
2023-04-10T03:23:58.682Z,3.57
2023-04-10T03:26:27.896Z,3.39
2023-04-10T03:28:56.620Z,3.12
2023-04-10T03:31:25.462Z,2.94
2023-04-10T03:33:57.425Z,3.05
2023-04-10T03:36:28.639Z,3.09
2023-04-10T03:38:57.311Z,3.14
2023-04-10T03:41:26.510Z,3.09
2023-04-10T03:43:56.141Z,3.14
2023-04-10T03:46:25.960Z,3.11
2023-04-10T03:48:55.351Z,3.08
2023-04-10T03:51:24.906Z,2.92
2023-04-10T03:53:56.075Z,3.06
2023-04-10T03:56:25.016Z,3.26
2023-04-10T03:58:53.753Z,3.31
2023-04-10T04:01:23.164Z,3.37
2023-04-10T04:04:01.708Z,3.33
2023-04-10T04:07:10.208Z,3.24
2023-04-10T04:10:03.442Z,3.36
2023-04-10T04:12:58.152Z,3.29
2023-04-10T04:15:49.894Z,3.45
2023-04-10T04:18:26.489Z,3.60
2023-04-10T04:21:11.681Z,3.65
2023-04-10T04:24:00.729Z,3.74
2023-04-10T04:26:52.365Z,3.79
2023-04-10T04:29:44.398Z,3.66
2023-04-10T04:32:27.139Z,3.71
2023-04-10T04:35:01.670Z,3.84
2023-04-10T04:37:50.395Z,3.94
2023-04-10T04:40:39.735Z,4.01
2023-04-10T04:43:24.783Z,3.99
2023-04-10T04:46:20.712Z,3.87
2023-04-10T04:49:13.229Z,3.75
2023-04-10T04:52:15.585Z,3.57
2023-04-10T04:55:06.328Z,3.67
2023-04-10T04:57:55.764Z,3.59
2023-04-10T05:00:43.414Z,3.75
2023-04-10T05:03:41.902Z,3.91
2023-04-10T05:06:36.424Z,4.02
2023-04-10T05:09:16.285Z,4.07
2023-04-10T05:11:56.399Z,3.89
2023-04-10T05:14:43.397Z,3.75
2023-04-10T05:17:30.561Z,3.82
2023-04-10T05:20:21.179Z,3.81
2023-04-10T05:23:07.191Z,4.02
2023-04-10T05:25:57.327Z,4.08
2023-04-10T05:28:44.665Z,4.03
2023-04-10T05:31:41.628Z,3.99
2023-04-10T05:34:17.639Z,3.99
2023-04-10T05:37:05.332Z,4.13
2023-04-10T05:40:01.431Z,4.31
2023-04-10T05:42:57.740Z,4.40
2023-04-10T05:45:46.894Z,4.54
2023-04-10T05:48:28.914Z,4.49
2023-04-10T05:51:17.745Z,4.42
2023-04-10T05:54:10.340Z,4.60
2023-04-10T05:56:49.177Z,4.75
2023-04-10T05:59:47.556Z,4.79
2023-04-10T06:02:27.801Z,4.92
2023-04-10T06:04:57.894Z,4.98
2023-04-10T06:07:28.874Z,5.05
2023-04-10T06:09:58.574Z,4.87
2023-04-10T06:12:27.421Z,4.81
2023-04-10T06:14:59.946Z,4.90
2023-04-10T06:17:31.267Z,4.96
2023-04-10T06:20:04.765Z,5.18
2023-04-10T06:22:34.901Z,5.32
2023-04-10T06:25:03.756Z,5.41
2023-04-10T06:27:36.261Z,5.51
2023-04-10T06:30:09.502Z,5.57
2023-04-10T06:35:28.191Z,5.72
2023-04-10T06:37:58.464Z,5.75
2023-04-10T06:40:31.409Z,5.88
2023-04-10T06:43:00.544Z,5.99
2023-04-10T06:45:35.602Z,6.11
2023-04-10T06:48:07.130Z,6.23
2023-04-10T06:50:35.933Z,6.33
2023-04-10T06:53:06.131Z,6.42
2023-04-10T06:55:35.004Z,6.51
2023-04-10T06:58:03.839Z,6.62
2023-04-10T07:00:32.860Z,6.72
2023-04-10T07:03:02.101Z,6.81
2023-04-10T07:05:32.532Z,6.91
2023-04-10T07:08:02.662Z,7.02
2023-04-10T07:10:33.169Z,7.13
2023-04-10T07:13:03.609Z,7.22
2023-04-10T07:15:33.685Z,7.31
2023-04-10T07:18:02.541Z,7.43
2023-04-10T07:20:32.347Z,7.54
2023-04-10T07:23:01.091Z,7.64
2023-04-10T07:25:32.773Z,7.74
2023-04-10T07:28:04.662Z,7.85
2023-04-10T07:30:34.110Z,7.97
2023-04-10T07:33:04.487Z,8.06
2023-04-10T07:35:34.121Z,8.15
2023-04-10T07:38:04.946Z,8.27
2023-04-10T07:40:35.942Z,8.42
2023-04-10T07:43:05.222Z,8.54
2023-04-10T07:45:34.877Z,8.69
2023-04-10T07:48:06.601Z,8.84
2023-04-10T07:50:36.387Z,9.01
2023-04-10T07:53:24.659Z,9.17
2023-04-10T07:55:55.160Z,9.26
2023-04-10T07:58:24.508Z,9.35
2023-04-10T08:00:53.779Z,9.50
2023-04-10T08:03:24.565Z,9.58
2023-04-10T08:05:54.889Z,9.66
2023-04-10T08:08:23.745Z,9.79
2023-04-10T08:10:52.494Z,9.96
2023-04-10T08:13:28.791Z,10.07
2023-04-10T08:19:04.384Z,10.22
2023-04-10T08:21:35.488Z,10.37
2023-04-10T08:24:06.337Z,10.51
2023-04-10T08:26:40.737Z,10.62
2023-04-10T08:29:15.111Z,10.75
2023-04-10T08:31:49.545Z,10.77
2023-04-10T08:34:20.738Z,10.97
2023-04-10T08:36:51.200Z,10.99
2023-04-10T08:39:20.819Z,11.18
2023-04-10T08:41:50.380Z,11.18
2023-04-10T08:44:21.347Z,11.24
2023-04-10T08:46:55.191Z,11.45
2023-04-10T08:49:42.706Z,11.70
2023-04-10T08:52:19.341Z,11.77
2023-04-10T08:54:52.375Z,11.96
2023-04-10T08:57:22.430Z,12.10
2023-04-10T08:59:53.625Z,12.28
2023-04-10T09:02:24.504Z,12.39
2023-04-10T09:04:56.884Z,12.50
2023-04-10T09:07:28.137Z,12.66
2023-04-10T09:09:58.561Z,12.57
2023-04-10T09:12:27.358Z,12.37
2023-04-10T09:14:58.795Z,12.40
2023-04-10T09:17:27.756Z,12.64
2023-04-10T09:19:58.046Z,12.87
2023-04-10T09:22:32.687Z,13.08
2023-04-10T09:25:04.741Z,13.14
2023-04-10T09:27:38.045Z,13.00
2023-04-10T09:30:13.618Z,12.76
2023-04-10T09:32:47.861Z,12.64
2023-04-10T09:35:19.336Z,12.37
2023-04-10T09:37:48.490Z,12.71
2023-04-10T09:40:25.548Z,13.18
2023-04-10T09:42:57.881Z,13.59
2023-04-10T09:45:28.066Z,13.81
2023-04-10T09:48:06.872Z,13.97
2023-04-10T09:50:39.945Z,14.02
2023-04-10T09:53:10.797Z,14.18
2023-04-10T09:55:41.923Z,14.31
2023-04-10T09:58:12.582Z,14.62
2023-04-10T10:00:46.818Z,14.90
2023-04-10T10:03:17.407Z,15.08
2023-04-10T10:05:51.156Z,15.18
2023-04-10T10:08:20.149Z,15.47
2023-04-10T10:10:52.712Z,15.53
2023-04-10T10:13:29.554Z,15.49
2023-04-10T10:16:14.836Z,15.25
2023-04-10T10:18:50.465Z,15.35
2023-04-10T10:21:23.250Z,15.07
2023-04-10T10:23:55.112Z,14.78
2023-04-10T10:26:25.427Z,14.77
2023-04-10T10:28:55.441Z,14.88
2023-04-10T10:31:32.749Z,15.16
2023-04-10T10:34:05.340Z,15.64
2023-04-10T10:36:36.412Z,16.10
2023-04-10T10:39:35.656Z,16.64
2023-04-10T10:42:20.175Z,16.97
2023-04-10T10:45:02.821Z,17.22
2023-04-10T10:47:39.619Z,17.04
2023-04-10T10:50:09.278Z,17.14
2023-04-10T10:52:45.371Z,17.49
2023-04-10T10:55:41.339Z,17.75
2023-04-10T10:58:11.380Z,18.13
2023-04-10T11:01:21.770Z,17.83
2023-04-10T11:03:53.112Z,17.48
2023-04-10T11:06:23.588Z,17.26
2023-04-10T11:08:57.889Z,17.59
2023-04-10T11:11:28.286Z,18.04
2023-04-10T11:14:21.900Z,18.37
2023-04-10T11:16:51.240Z,18.68
2023-04-10T11:19:25.571Z,18.98
2023-04-10T11:22:10.998Z,19.07
2023-04-10T11:25:10.811Z,19.27
2023-04-10T11:27:48.830Z,19.74
2023-04-10T11:30:36.105Z,19.70
2023-04-10T11:33:07.612Z,19.79
2023-04-10T11:35:38.484Z,19.82
2023-04-10T11:38:16.174Z,19.48
2023-04-10T11:41:06.356Z,19.35
2023-04-10T11:43:36.240Z,19.43
2023-04-10T11:46:09.393Z,18.96
2023-04-10T11:48:44.715Z,18.04
2023-04-10T11:51:16.492Z,17.73
2023-04-10T11:53:46.345Z,17.48
2023-04-10T11:56:22.529Z,17.53
2023-04-10T11:58:55.253Z,17.72
2023-04-10T12:01:25.629Z,17.48
2023-04-10T12:03:56.215Z,17.19
2023-04-10T12:06:27.741Z,18.12
2023-04-10T12:08:57.174Z,19.15
2023-04-10T12:11:28.938Z,19.97
2023-04-10T12:13:59.253Z,20.42
2023-04-10T12:16:28.479Z,20.67
2023-04-10T12:18:58.868Z,20.68
2023-04-10T12:21:31.248Z,21.15
2023-04-10T12:24:01.426Z,21.43
2023-04-10T12:26:30.234Z,21.21
2023-04-10T12:29:01.325Z,21.24
2023-04-10T12:31:33.047Z,21.42
2023-04-10T12:34:05.763Z,21.41
2023-04-10T12:36:36.157Z,21.69
2023-04-10T12:39:22.942Z,21.65
2023-04-10T12:41:52.085Z,21.81
2023-04-10T12:44:21.878Z,21.99
2023-04-10T12:46:50.720Z,22.18
2023-04-10T12:49:20.418Z,22.19
2023-04-10T12:51:52.516Z,21.95
2023-04-10T12:55:02.413Z,22.38
2023-04-10T12:57:33.317Z,22.61
2023-04-10T13:00:03.478Z,22.94
2023-04-10T13:02:38.891Z,23.26
2023-04-10T13:05:10.526Z,23.44
2023-04-10T13:07:43.964Z,22.98
2023-04-10T13:10:12.890Z,23.29
2023-04-10T13:12:43.839Z,23.47
2023-04-10T13:15:12.932Z,23.66
2023-04-10T13:17:42.351Z,23.81
2023-04-10T13:20:13.611Z,24.54
2023-04-10T13:22:43.678Z,24.72
2023-04-10T13:25:12.319Z,24.84
2023-04-10T13:27:41.120Z,24.88
2023-04-10T13:30:11.029Z,24.98
2023-04-10T13:32:39.742Z,24.85
2023-04-10T13:35:10.669Z,24.77
2023-04-10T13:37:39.626Z,24.87
2023-04-10T13:40:11.764Z,24.57
2023-04-10T13:42:53.914Z,24.45
2023-04-10T13:45:23.530Z,25.04
2023-04-10T13:47:52.959Z,25.34
2023-04-10T13:50:22.924Z,25.99
2023-04-10T13:52:53.766Z,25.68
2023-04-10T13:55:24.357Z,25.50
2023-04-10T13:57:57.143Z,25.09
2023-04-10T14:00:26.980Z,24.86
2023-04-10T14:02:55.914Z,25.17
2023-04-10T14:05:24.868Z,25.09
2023-04-10T14:07:57.765Z,25.17
2023-04-10T14:10:31.838Z,25.24
2023-04-10T14:13:11.683Z,25.51
2023-04-10T14:15:44.116Z,26.09
2023-04-10T14:18:14.932Z,26.63
2023-04-10T14:20:43.670Z,26.48
2023-04-10T14:23:18.538Z,26.53
2023-04-10T14:25:52.557Z,26.72
2023-04-10T14:28:21.516Z,26.47
2023-04-10T14:30:54.254Z,26.61
2023-04-10T14:33:33.309Z,26.56
2023-04-10T14:36:08.146Z,26.51
2023-04-10T14:38:38.019Z,26.27
2023-04-10T14:41:10.979Z,26.22
2023-04-10T14:43:40.350Z,25.59
2023-04-10T14:46:09.312Z,25.35
2023-04-10T14:48:39.279Z,24.84
2023-04-10T14:51:12.985Z,24.88
2023-04-10T14:53:42.061Z,25.34
2023-04-10T14:56:17.311Z,25.27
2023-04-10T14:58:50.667Z,24.33
2023-04-10T15:01:39.860Z,23.24
2023-04-10T15:04:09.754Z,22.59
2023-04-10T15:06:44.518Z,21.97
2023-04-10T15:09:14.491Z,21.30
2023-04-10T15:11:48.355Z,20.76
2023-04-10T15:14:19.191Z,20.28
2023-04-10T15:16:48.460Z,19.78
2023-04-10T15:19:18.346Z,19.52
2023-04-10T15:21:51.251Z,19.26
2023-04-10T15:24:21.288Z,19.20
2023-04-10T15:26:53.695Z,19.09
2023-04-10T15:29:22.891Z,18.89
2023-04-10T15:31:52.759Z,18.71
2023-04-10T15:34:30.865Z,18.65
2023-04-10T15:36:59.812Z,18.45
2023-04-10T15:39:30.931Z,18.37
2023-04-10T15:42:04.293Z,18.28
2023-04-10T15:44:34.942Z,18.17
2023-04-10T15:47:06.094Z,18.11
2023-04-10T15:49:38.415Z,18.12
2023-04-10T15:52:36.421Z,18.00
2023-04-10T15:55:14.702Z,17.76
2023-04-10T15:57:46.028Z,17.66
2023-04-10T16:00:18.474Z,17.84
2023-04-10T16:02:47.976Z,17.90
2023-04-10T16:05:19.449Z,18.06
2023-04-10T16:07:49.484Z,17.97
2023-04-10T16:10:19.112Z,18.04
2023-04-10T16:12:51.046Z,18.06
2023-04-10T16:15:20.461Z,18.06
2023-04-10T16:17:49.357Z,17.98
2023-04-10T16:20:20.195Z,17.78
2023-04-10T16:22:50.053Z,17.65
2023-04-10T16:25:21.727Z,17.75
2023-04-10T16:27:59.108Z,17.73
2023-04-10T16:30:28.220Z,17.58
2023-04-10T16:32:59.132Z,17.58
2023-04-10T16:35:31.809Z,17.46
2023-04-10T16:38:03.030Z,17.38
2023-04-10T16:40:33.313Z,17.33
2023-04-10T16:43:05.948Z,17.20
2023-04-10T16:45:41.269Z,17.10
2023-04-10T16:48:13.591Z,17.07
2023-04-10T16:50:42.456Z,17.02
2023-04-10T16:53:11.683Z,16.97
2023-04-10T16:55:41.282Z,16.95
2023-04-10T16:58:12.289Z,16.99
2023-04-10T17:00:43.481Z,16.94
2023-04-10T17:03:13.561Z,16.93
2023-04-10T17:05:44.684Z,16.79
2023-04-10T17:08:13.615Z,16.72
2023-04-10T17:10:42.685Z,16.66
2023-04-10T17:13:13.940Z,16.55
2023-04-10T17:15:42.752Z,16.52
2023-04-10T17:18:14.751Z,16.53
2023-04-10T17:20:47.744Z,16.33
2023-04-10T17:23:18.565Z,16.41
2023-04-10T17:25:48.782Z,16.25
2023-04-10T17:28:19.245Z,16.19
2023-04-10T17:30:48.443Z,16.12
2023-04-10T17:33:24.957Z,15.95
2023-04-10T17:35:53.971Z,15.83
2023-04-10T17:38:22.867Z,15.80
2023-04-10T17:40:51.713Z,15.70
2023-04-10T17:43:26.347Z,15.63
2023-04-10T17:46:00.868Z,15.23
2023-04-10T17:48:39.861Z,15.22
2023-04-10T17:51:12.726Z,15.17
2023-04-10T17:53:58.558Z,15.02
2023-04-10T17:56:30.683Z,14.86
2023-04-10T17:59:00.965Z,14.79
2023-04-10T18:01:31.219Z,14.48
2023-04-10T18:04:00.263Z,14.31
2023-04-10T18:06:29.246Z,14.05
2023-04-10T18:08:58.122Z,13.81
2023-04-10T18:11:27.379Z,13.69
2023-04-10T18:13:56.152Z,13.65
2023-04-10T18:16:26.399Z,13.61
2023-04-10T18:18:55.629Z,13.68
2023-04-10T18:21:25.546Z,13.40
2023-04-10T18:23:55.767Z,13.52
2023-04-10T18:26:24.655Z,13.61
2023-04-10T18:28:53.784Z,13.53
2023-04-10T18:31:25.667Z,13.43
2023-04-10T18:34:06.333Z,13.26
2023-04-10T18:36:38.026Z,13.12
2023-04-10T18:39:07.867Z,13.20
2023-04-10T18:41:38.368Z,13.24
2023-04-10T18:44:09.433Z,13.18
2023-04-10T18:46:42.736Z,13.07
2023-04-10T18:49:19.885Z,12.92
2023-04-10T18:51:48.752Z,12.58
2023-04-10T18:54:19.557Z,12.74
2023-04-10T18:56:52.472Z,12.39
2023-04-10T18:59:23.961Z,12.23
2023-04-10T19:01:56.819Z,12.28
2023-04-10T19:04:27.235Z,12.18
2023-04-10T19:06:58.231Z,12.33
2023-04-10T19:09:28.807Z,12.43
2023-04-10T19:12:15.809Z,12.48
2023-04-10T19:14:46.509Z,12.49
2023-04-10T19:17:28.478Z,12.43
2023-04-10T19:20:00.374Z,11.98
2023-04-10T19:22:39.824Z,11.73
2023-04-10T19:25:24.844Z,11.91
2023-04-10T19:28:40.873Z,11.99
2023-04-10T19:32:03.542Z,12.05
2023-04-10T19:34:32.280Z,11.87
2023-04-10T19:37:12.387Z,11.33
2023-04-10T19:39:47.421Z,11.11
2023-04-10T19:42:39.067Z,11.02
2023-04-10T19:45:31.903Z,11.04
2023-04-10T19:48:34.421Z,11.20
2023-04-10T19:51:08.540Z,11.20
2023-04-10T19:53:43.444Z,10.97
2023-04-10T19:56:14.416Z,10.72
2023-04-10T19:58:46.941Z,10.45
2023-04-10T20:01:19.579Z,10.43
2023-04-10T20:04:05.807Z,10.41
2023-04-10T20:07:09.579Z,10.73
2023-04-10T20:09:50.589Z,10.95
2023-04-10T20:12:21.168Z,10.91
2023-04-10T20:14:54.927Z,10.72
2023-04-10T20:17:27.961Z,10.34
2023-04-10T20:19:58.641Z,10.12
2023-04-10T20:22:59.454Z,10.15
2023-04-10T20:25:43.374Z,10.59
2023-04-10T20:28:41.766Z,10.71
2023-04-10T20:32:28.280Z,10.63
2023-04-10T20:35:10.381Z,10.65
2023-04-10T20:38:09.800Z,10.20
2023-04-10T20:40:44.727Z,10.12
2023-04-10T20:43:42.709Z,9.92
2023-04-10T20:49:35.362Z,9.62
2023-04-10T20:52:21.866Z,9.70
2023-04-10T20:55:15.035Z,9.84
2023-04-10T20:58:15.298Z,9.89
2023-04-10T21:01:10.277Z,9.99
2023-04-10T21:03:55.500Z,9.70
2023-04-10T21:06:49.599Z,9.48
2023-04-10T21:09:43.410Z,9.11
2023-04-10T21:12:20.066Z,9.33
2023-04-10T21:15:09.778Z,9.35
2023-04-10T21:17:46.325Z,9.60
2023-04-10T21:20:36.303Z,9.65
2023-04-10T21:23:13.624Z,9.56
2023-04-10T21:25:56.942Z,9.46
2023-04-10T21:28:50.502Z,9.38
2023-04-10T21:31:32.102Z,9.44
2023-04-10T21:34:08.153Z,9.62
2023-04-10T21:36:38.975Z,9.66
2023-04-10T21:39:13.562Z,9.49
2023-04-10T21:41:49.405Z,9.52
2023-04-10T21:44:41.061Z,9.44
2023-04-10T21:47:10.927Z,9.37
2023-04-10T21:49:43.033Z,9.25
2023-04-10T21:52:17.212Z,9.32
2023-04-10T21:54:49.497Z,9.36
2023-04-10T21:57:33.684Z,9.45
2023-04-10T22:00:17.260Z,9.54
2023-04-10T22:02:47.469Z,9.58
2023-04-10T22:05:17.933Z,9.40
2023-04-10T22:08:06.457Z,9.32
2023-04-10T22:10:35.815Z,9.20
2023-04-10T22:13:04.625Z,9.36
2023-04-10T22:15:35.737Z,9.43
2023-04-10T22:18:08.466Z,9.46
2023-04-10T22:20:40.305Z,9.44
2023-04-10T22:23:14.202Z,9.49
2023-04-10T22:25:44.536Z,9.54
2023-04-10T22:28:17.246Z,9.39
2023-04-10T22:31:01.202Z,9.46
2023-04-10T22:33:33.796Z,9.46
2023-04-10T22:36:07.751Z,9.48
2023-04-10T22:38:41.979Z,9.33
2023-04-10T22:41:18.335Z,9.24
2023-04-10T22:43:56.032Z,9.09
2023-04-10T22:46:33.364Z,9.27
2023-04-10T22:49:02.370Z,9.21
2023-04-10T22:51:31.534Z,9.20
2023-04-10T22:54:00.381Z,9.21
2023-04-10T22:56:29.524Z,9.27
2023-04-10T22:58:58.223Z,9.27
2023-04-10T23:01:26.933Z,9.26
2023-04-10T23:03:58.454Z,9.07
2023-04-10T23:06:27.555Z,9.03
2023-04-10T23:08:58.646Z,9.04
2023-04-10T23:11:27.598Z,9.10
2023-04-10T23:13:56.394Z,9.17
2023-04-10T23:16:25.281Z,9.22
2023-04-10T23:18:54.342Z,9.15
2023-04-10T23:21:24.714Z,9.14
2023-04-10T23:23:53.519Z,9.13
2023-04-10T23:26:22.480Z,9.08
2023-04-10T23:28:51.264Z,9.14
2023-04-10T23:31:20.042Z,9.20
2023-04-10T23:33:48.825Z,9.19
2023-04-10T23:36:17.750Z,9.22
2023-04-10T23:38:47.897Z,9.27
2023-04-10T23:41:16.628Z,9.38
2023-04-10T23:43:46.033Z,9.40
2023-04-10T23:46:14.821Z,9.42
2023-04-10T23:48:43.646Z,9.44
2023-04-10T23:51:13.451Z,9.47
2023-04-10T23:53:42.152Z,9.46
2023-04-10T23:56:12.483Z,9.45
2023-04-10T23:58:41.133Z,9.57
